createdAt,value
2023-01-19T00:00:31.306Z,5.33
2023-01-19T00:03:18.288Z,5.27
2023-01-19T00:05:45.276Z,5.24
2023-01-19T00:08:15.513Z,5.22
2023-01-19T00:10:48.085Z,5.20
2023-01-19T00:13:15.658Z,5.17
2023-01-19T00:15:43.309Z,5.14
2023-01-19T00:18:11.100Z,5.13
2023-01-19T00:20:41.763Z,5.09
2023-01-19T00:23:08.916Z,5.08
2023-01-19T00:25:41.806Z,5.08
2023-01-19T00:28:11.164Z,5.00
2023-01-19T00:30:39.031Z,4.97
2023-01-19T00:33:06.031Z,4.96
2023-01-19T00:35:34.201Z,4.92
2023-01-19T00:38:01.757Z,4.90
2023-01-19T00:40:28.823Z,4.87
2023-01-19T00:42:55.791Z,4.86
2023-01-19T00:45:24.121Z,4.85
2023-01-19T00:47:56.510Z,4.85
2023-01-19T00:50:25.008Z,4.83
2023-01-19T00:52:53.676Z,4.83
2023-01-19T00:55:20.897Z,4.83
2023-01-19T00:57:48.447Z,4.81
2023-01-19T01:00:19.200Z,4.81
2023-01-19T01:02:47.828Z,4.81
2023-01-19T01:05:15.901Z,4.80
2023-01-19T01:07:46.498Z,4.82
2023-01-19T01:10:14.986Z,4.91
2023-01-19T01:12:54.857Z,5.00
2023-01-19T01:15:25.969Z,5.09
2023-01-19T01:17:53.327Z,5.16
2023-01-19T01:20:22.998Z,5.21
2023-01-19T01:22:52.075Z,5.25
2023-01-19T01:25:22.032Z,5.30
2023-01-19T01:27:49.704Z,5.34
2023-01-19T01:30:17.212Z,5.38
2023-01-19T01:32:44.356Z,5.42
2023-01-19T01:35:12.619Z,5.44
2023-01-19T01:37:40.061Z,5.45
2023-01-19T01:40:08.699Z,5.45
2023-01-19T01:42:35.705Z,5.43
2023-01-19T01:45:20.748Z,5.40
2023-01-19T01:47:49.382Z,5.36
2023-01-19T01:50:22.604Z,5.32
2023-01-19T01:53:06.910Z,5.28
2023-01-19T01:55:40.279Z,5.24
2023-01-19T01:58:10.039Z,5.19
2023-01-19T02:00:57.114Z,5.15
2023-01-19T02:03:25.742Z,5.10
2023-01-19T02:05:56.982Z,5.07
2023-01-19T02:09:06.157Z,5.04
2023-01-19T02:11:53.709Z,5.01
2023-01-19T02:14:21.199Z,5.00
2023-01-19T02:16:48.268Z,4.96
2023-01-19T02:19:30.366Z,4.95
2023-01-19T02:22:05.965Z,4.92
2023-01-19T02:24:33.262Z,4.89
2023-01-19T02:27:00.755Z,4.86
2023-01-19T02:29:28.295Z,4.83
2023-01-19T02:31:56.738Z,4.81
2023-01-19T02:34:23.683Z,4.79
2023-01-19T02:36:57.720Z,4.77
2023-01-19T02:39:40.952Z,4.75
2023-01-19T02:42:23.570Z,4.74
2023-01-19T02:44:54.487Z,4.72
2023-01-19T02:47:21.625Z,4.70
2023-01-19T02:49:59.714Z,4.68
2023-01-19T02:52:27.686Z,4.68
2023-01-19T02:55:06.662Z,4.67
2023-01-19T02:57:48.487Z,4.68
2023-01-19T03:00:36.741Z,4.71
2023-01-19T03:03:19.006Z,4.74
2023-01-19T03:06:21.629Z,4.75
2023-01-19T03:09:03.844Z,4.72
2023-01-19T03:11:39.216Z,4.68
2023-01-19T03:14:18.935Z,4.67
2023-01-19T03:16:50.830Z,4.64
2023-01-19T03:19:23.165Z,4.58
2023-01-19T03:22:00.426Z,4.53
2023-01-19T03:24:30.996Z,4.50
2023-01-19T03:27:06.544Z,4.48
2023-01-19T03:29:36.424Z,4.47
2023-01-19T03:32:09.935Z,4.46
2023-01-19T03:34:40.292Z,4.45
2023-01-19T03:37:09.845Z,4.45
2023-01-19T03:39:37.151Z,4.43
2023-01-19T03:42:08.879Z,4.43
2023-01-19T03:44:39.729Z,4.41
2023-01-19T03:47:08.910Z,4.39
2023-01-19T03:49:37.335Z,4.38
2023-01-19T03:52:04.719Z,4.39
2023-01-19T03:54:31.788Z,4.41
2023-01-19T03:56:58.690Z,4.41
2023-01-19T03:59:25.702Z,4.42
2023-01-19T04:01:52.695Z,4.44
2023-01-19T04:04:19.769Z,4.46
2023-01-19T04:06:46.944Z,4.50
2023-01-19T04:09:13.914Z,4.53
2023-01-19T04:11:40.882Z,4.55
2023-01-19T04:14:07.835Z,4.57
2023-01-19T04:16:34.987Z,4.57
2023-01-19T04:19:01.964Z,4.59
2023-01-19T04:21:28.934Z,4.57
2023-01-19T04:23:55.951Z,4.57
2023-01-19T04:26:23.464Z,4.57
2023-01-19T04:28:50.435Z,4.57
2023-01-19T04:31:18.804Z,4.59
2023-01-19T04:33:45.877Z,4.60
2023-01-19T04:36:12.809Z,4.61
2023-01-19T04:38:39.750Z,4.63
2023-01-19T04:41:06.742Z,4.63
2023-01-19T04:43:33.922Z,4.65
2023-01-19T04:46:01.046Z,4.70
2023-01-19T04:48:28.088Z,4.74
2023-01-19T04:50:55.028Z,4.75
2023-01-19T04:53:22.203Z,4.75
2023-01-19T04:55:54.445Z,4.81
2023-01-19T04:58:21.688Z,4.87
2023-01-19T05:00:50.542Z,4.99
2023-01-19T05:03:18.830Z,5.07
2023-01-19T05:05:45.959Z,5.17
2023-01-19T05:08:12.904Z,5.23
2023-01-19T05:10:39.831Z,5.27
2023-01-19T05:13:06.847Z,5.30
2023-01-19T05:15:33.806Z,5.31
2023-01-19T05:18:00.874Z,5.30
2023-01-19T05:20:27.844Z,5.28
2023-01-19T05:22:54.884Z,5.24
2023-01-19T05:25:21.868Z,5.22
2023-01-19T05:27:48.959Z,5.20
2023-01-19T05:30:16.390Z,5.19
2023-01-19T05:32:43.776Z,5.19
2023-01-19T05:35:12.879Z,5.18
2023-01-19T05:37:40.496Z,5.18
2023-01-19T05:40:08.640Z,5.20
2023-01-19T05:42:36.497Z,5.22
2023-01-19T05:45:04.647Z,5.23
2023-01-19T05:47:31.811Z,5.25
2023-01-19T05:49:58.732Z,5.25
2023-01-19T05:52:25.707Z,5.23
2023-01-19T05:54:54.516Z,5.21
2023-01-19T05:57:22.283Z,5.17
2023-01-19T05:59:49.416Z,5.13
2023-01-19T06:02:16.647Z,5.07
2023-01-19T06:04:44.278Z,5.02
2023-01-19T06:07:11.311Z,5.01
2023-01-19T06:09:38.294Z,4.97
2023-01-19T06:12:05.724Z,4.97
2023-01-19T06:14:32.656Z,4.96
2023-01-19T06:16:59.592Z,4.95
2023-01-19T06:19:26.729Z,4.95
2023-01-19T06:21:53.659Z,4.94
2023-01-19T06:24:20.851Z,4.93
2023-01-19T06:26:47.796Z,4.92
2023-01-19T06:29:14.921Z,4.88
2023-01-19T06:31:42.610Z,4.88
2023-01-19T06:34:10.006Z,4.92
2023-01-19T06:36:37.035Z,4.95
2023-01-19T06:39:05.473Z,4.97
2023-01-19T06:41:33.789Z,5.02
2023-01-19T06:44:01.212Z,5.10
2023-01-19T06:46:31.408Z,5.17
2023-01-19T06:48:58.378Z,5.21
2023-01-19T06:51:25.436Z,5.23
2023-01-19T06:53:52.895Z,5.25
2023-01-19T06:56:22.745Z,5.27
2023-01-19T06:58:53.716Z,5.28
2023-01-19T07:01:20.783Z,5.31
2023-01-19T07:03:48.083Z,5.33
2023-01-19T07:06:15.149Z,5.36
2023-01-19T07:08:42.184Z,5.39
2023-01-19T07:11:26.649Z,5.43
2023-01-19T07:13:58.547Z,5.46
2023-01-19T07:16:26.146Z,5.46
2023-01-19T07:18:53.117Z,5.46
2023-01-19T07:21:20.496Z,5.50
2023-01-19T07:23:51.856Z,5.52
2023-01-19T07:26:20.694Z,5.55
2023-01-19T07:28:48.585Z,5.59
2023-01-19T07:31:16.551Z,5.64
2023-01-19T07:33:44.364Z,5.72
2023-01-19T07:36:11.684Z,5.81
2023-01-19T07:38:39.087Z,5.90
2023-01-19T07:41:09.132Z,5.99
2023-01-19T07:43:36.195Z,6.07
2023-01-19T07:46:05.630Z,6.14
2023-01-19T07:48:32.903Z,6.22
2023-01-19T07:51:01.526Z,6.37
2023-01-19T07:53:28.506Z,6.54
2023-01-19T07:55:56.253Z,6.70
2023-01-19T07:58:24.859Z,6.87
2023-01-19T08:00:52.348Z,7.02
2023-01-19T08:03:19.739Z,7.15
2023-01-19T08:05:51.333Z,7.25
2023-01-19T08:08:18.908Z,7.31
2023-01-19T08:10:49.723Z,7.35
2023-01-19T08:13:16.767Z,7.38
2023-01-19T08:15:44.055Z,7.41
2023-01-19T08:18:11.147Z,7.41
2023-01-19T08:20:38.346Z,7.43
2023-01-19T08:23:05.315Z,7.47
2023-01-19T08:25:44.542Z,7.52
2023-01-19T08:28:14.127Z,7.56
2023-01-19T08:30:43.738Z,7.64
2023-01-19T08:33:12.261Z,7.71
2023-01-19T08:35:41.658Z,7.76
2023-01-19T08:38:09.828Z,7.83
2023-01-19T08:40:39.003Z,7.89
2023-01-19T08:43:14.988Z,7.94
2023-01-19T08:45:48.529Z,8.00
2023-01-19T08:48:18.061Z,8.04
2023-01-19T08:50:46.789Z,8.11
2023-01-19T08:53:14.669Z,8.21
2023-01-19T08:55:41.757Z,8.30
2023-01-19T08:58:09.105Z,8.37
2023-01-19T09:00:37.819Z,8.48
2023-01-19T09:03:06.707Z,8.62
2023-01-19T09:05:36.859Z,8.81
2023-01-19T09:08:13.874Z,9.05
2023-01-19T09:10:49.799Z,9.27
2023-01-19T09:13:18.308Z,9.64
2023-01-19T09:15:45.793Z,10.08
2023-01-19T09:18:16.472Z,10.40
2023-01-19T09:20:45.442Z,10.76
2023-01-19T09:23:14.785Z,11.09
2023-01-19T09:25:43.506Z,11.48
2023-01-19T09:28:12.432Z,11.84
2023-01-19T09:30:40.929Z,11.96
2023-01-19T09:33:10.632Z,11.96
2023-01-19T09:35:38.996Z,12.01
2023-01-19T09:38:08.331Z,12.04
2023-01-19T09:41:12.120Z,12.05
2023-01-19T09:43:45.112Z,12.04
2023-01-19T09:46:21.837Z,12.01
2023-01-19T09:48:54.010Z,11.99
2023-01-19T09:51:32.086Z,12.07
2023-01-19T09:54:28.659Z,12.23
2023-01-19T09:56:55.765Z,12.46
2023-01-19T09:59:36.629Z,12.64
2023-01-19T10:02:22.179Z,12.73
2023-01-19T10:04:52.532Z,12.76
2023-01-19T10:08:07.889Z,12.72
2023-01-19T10:10:37.173Z,12.64
2023-01-19T10:13:13.768Z,12.63
2023-01-19T10:16:09.963Z,12.67
2023-01-19T10:18:47.379Z,12.75
2023-01-19T10:21:19.204Z,12.76
2023-01-19T10:23:55.398Z,12.80
2023-01-19T10:26:33.464Z,12.95
2023-01-19T10:29:37.156Z,13.10
2023-01-19T10:32:19.369Z,13.29
2023-01-19T10:34:48.522Z,13.52
2023-01-19T10:37:27.454Z,13.65
2023-01-19T10:40:01.899Z,13.80
2023-01-19T10:42:30.384Z,14.00
2023-01-19T10:44:57.497Z,14.11
2023-01-19T10:47:33.033Z,14.10
2023-01-19T10:50:06.232Z,14.08
2023-01-19T10:52:36.780Z,14.02
2023-01-19T10:55:06.886Z,13.94
2023-01-19T10:57:37.769Z,13.88
2023-01-19T11:00:07.417Z,13.83
2023-01-19T11:02:34.502Z,13.80
2023-01-19T11:05:23.113Z,13.78
2023-01-19T11:07:50.392Z,13.74
2023-01-19T11:10:17.961Z,13.72
2023-01-19T11:13:23.505Z,13.68
2023-01-19T11:15:56.882Z,13.64
2023-01-19T11:18:29.959Z,13.59
2023-01-19T11:21:16.688Z,13.52
2023-01-19T11:23:52.134Z,13.33
2023-01-19T11:26:47.525Z,13.13
2023-01-19T11:29:23.755Z,12.99
2023-01-19T11:31:52.771Z,12.88
2023-01-19T11:34:26.975Z,12.80
2023-01-19T11:37:19.924Z,12.75
2023-01-19T11:39:52.604Z,12.71
2023-01-19T11:42:20.888Z,12.64
2023-01-19T11:44:58.752Z,12.50
2023-01-19T11:47:42.617Z,12.39
2023-01-19T11:50:09.539Z,12.26
2023-01-19T11:52:57.276Z,12.10
2023-01-19T11:55:36.380Z,11.96
2023-01-19T11:58:04.896Z,11.82
2023-01-19T12:00:37.861Z,11.72
2023-01-19T12:03:45.968Z,11.63
2023-01-19T12:06:22.151Z,11.49
2023-01-19T12:09:08.996Z,11.40
2023-01-19T12:12:05.838Z,11.29
2023-01-19T12:15:04.635Z,11.21
2023-01-19T12:17:45.490Z,11.16
2023-01-19T12:20:21.412Z,11.12
2023-01-19T12:22:59.579Z,11.06
2023-01-19T12:25:52.718Z,11.04
2023-01-19T12:28:28.298Z,11.04
2023-01-19T12:30:56.652Z,11.09
2023-01-19T12:33:37.189Z,11.21
2023-01-19T12:36:06.484Z,11.38
2023-01-19T12:38:36.239Z,11.60
2023-01-19T12:41:23.832Z,11.82
2023-01-19T12:44:09.249Z,12.06
2023-01-19T12:47:05.789Z,12.30
2023-01-19T12:50:16.509Z,12.49
2023-01-19T12:52:56.362Z,12.57
2023-01-19T12:55:30.565Z,12.51
2023-01-19T12:58:02.470Z,12.38
2023-01-19T13:00:33.092Z,12.26
2023-01-19T13:03:16.882Z,12.13
2023-01-19T13:05:43.828Z,11.98
2023-01-19T13:08:13.552Z,11.88
2023-01-19T13:11:01.870Z,11.78
2023-01-19T13:13:30.072Z,11.70
2023-01-19T13:16:19.631Z,11.64
2023-01-19T13:18:48.612Z,11.55
2023-01-19T13:21:40.253Z,11.47
2023-01-19T13:24:09.989Z,11.41
2023-01-19T13:26:40.935Z,11.37
2023-01-19T13:29:07.933Z,11.32
2023-01-19T13:31:37.969Z,11.28
2023-01-19T13:34:12.900Z,11.26
2023-01-19T13:36:44.739Z,11.24
2023-01-19T13:39:25.194Z,11.20
2023-01-19T13:41:55.133Z,11.19
2023-01-19T13:44:34.559Z,11.13
2023-01-19T13:47:03.975Z,11.10
2023-01-19T13:49:38.574Z,11.07
2023-01-19T13:52:16.396Z,11.04
2023-01-19T13:54:48.590Z,11.02
2023-01-19T13:57:27.758Z,11.01
2023-01-19T14:00:13.808Z,10.97
2023-01-19T14:02:51.132Z,10.93
2023-01-19T14:05:34.905Z,10.91
2023-01-19T14:08:07.923Z,10.88
2023-01-19T14:10:36.181Z,10.87
2023-01-19T14:13:26.083Z,10.84
2023-01-19T14:15:55.960Z,10.82
2023-01-19T14:18:29.625Z,10.79
2023-01-19T14:20:56.563Z,10.76
2023-01-19T14:23:51.444Z,10.72
2023-01-19T14:26:36.829Z,10.72
2023-01-19T14:29:09.548Z,10.71
2023-01-19T14:31:59.515Z,10.69
2023-01-19T14:34:44.386Z,10.66
2023-01-19T14:37:22.260Z,10.63
2023-01-19T14:40:04.204Z,10.59
2023-01-19T14:42:38.201Z,10.56
2023-01-19T14:45:17.603Z,10.53
2023-01-19T14:47:52.545Z,10.50
2023-01-19T14:50:33.696Z,10.49
2023-01-19T14:53:04.057Z,10.44
2023-01-19T14:55:39.698Z,10.42
2023-01-19T14:58:11.235Z,10.40
2023-01-19T15:00:39.336Z,10.37
2023-01-19T15:03:06.854Z,10.34
2023-01-19T15:05:33.777Z,10.32
2023-01-19T15:08:02.986Z,10.30
2023-01-19T15:10:30.716Z,10.27
2023-01-19T15:12:57.745Z,10.25
2023-01-19T15:15:33.821Z,10.24
2023-01-19T15:18:02.820Z,10.22
2023-01-19T15:20:29.952Z,10.19
2023-01-19T15:22:57.040Z,10.17
2023-01-19T15:25:25.537Z,10.16
2023-01-19T15:27:55.961Z,10.15
2023-01-19T15:30:30.292Z,10.14
2023-01-19T15:32:58.409Z,10.14
2023-01-19T15:35:26.023Z,10.12
2023-01-19T15:37:53.026Z,10.12
2023-01-19T15:40:22.384Z,10.10
2023-01-19T15:42:50.166Z,10.07
2023-01-19T15:45:41.854Z,10.05
2023-01-19T15:48:10.853Z,10.02
2023-01-19T15:50:40.912Z,10.03
2023-01-19T15:53:13.240Z,10.02
2023-01-19T15:55:40.184Z,10.01
2023-01-19T15:58:08.646Z,10.01
2023-01-19T16:00:36.075Z,9.99
2023-01-19T16:03:03.436Z,9.97
2023-01-19T16:05:42.637Z,9.96
2023-01-19T16:08:11.213Z,9.95
2023-01-19T16:10:39.349Z,9.93
2023-01-19T16:13:06.830Z,9.92
2023-01-19T16:15:35.913Z,9.92
2023-01-19T16:18:04.382Z,9.90
2023-01-19T16:20:31.648Z,9.89
2023-01-19T16:23:09.647Z,9.87
2023-01-19T16:25:41.121Z,9.82
2023-01-19T16:28:08.532Z,9.74
2023-01-19T16:30:35.582Z,9.64
2023-01-19T16:33:02.634Z,9.53
2023-01-19T16:35:29.607Z,9.43
2023-01-19T16:37:56.551Z,9.33
2023-01-19T16:40:23.520Z,9.26
2023-01-19T16:42:50.582Z,9.18
2023-01-19T16:45:17.660Z,9.11
2023-01-19T16:47:49.854Z,9.03
2023-01-19T16:50:16.813Z,8.96
2023-01-19T16:52:44.259Z,8.86
2023-01-19T16:55:11.718Z,8.79
2023-01-19T16:57:38.747Z,8.70
2023-01-19T17:00:09.769Z,8.60
2023-01-19T17:02:37.075Z,8.55
2023-01-19T17:05:04.405Z,8.48
2023-01-19T17:07:31.364Z,8.44
2023-01-19T17:09:58.475Z,8.38
2023-01-19T17:12:25.833Z,8.34
2023-01-19T17:14:52.928Z,8.32
2023-01-19T17:17:19.903Z,8.29
2023-01-19T17:19:46.901Z,8.25
2023-01-19T17:22:14.514Z,8.23
2023-01-19T17:24:42.703Z,8.23
2023-01-19T17:27:09.782Z,8.20
2023-01-19T17:29:36.717Z,8.18
2023-01-19T17:32:04.055Z,8.17
2023-01-19T17:34:31.473Z,8.15
2023-01-19T17:37:02.319Z,8.12
2023-01-19T17:39:29.204Z,8.08
2023-01-19T17:41:56.281Z,8.05
2023-01-19T17:44:23.351Z,8.00
2023-01-19T17:46:50.401Z,7.95
2023-01-19T17:49:17.476Z,7.94
2023-01-19T17:51:44.466Z,7.93
2023-01-19T17:54:11.923Z,7.94
2023-01-19T17:56:40.650Z,7.94
2023-01-19T17:59:08.203Z,7.94
2023-01-19T18:01:39.132Z,7.92
2023-01-19T18:04:07.165Z,7.90
2023-01-19T18:06:34.435Z,7.87
2023-01-19T18:09:02.552Z,7.86
2023-01-19T18:11:30.245Z,7.82
2023-01-19T18:13:57.929Z,7.81
2023-01-19T18:16:27.325Z,7.80
2023-01-19T18:18:55.952Z,7.78
2023-01-19T18:21:24.541Z,7.75
2023-01-19T18:23:51.630Z,7.73
2023-01-19T18:26:20.882Z,7.70
2023-01-19T18:28:48.592Z,7.68
2023-01-19T18:31:17.614Z,7.67
2023-01-19T18:33:45.124Z,7.67
2023-01-19T18:36:12.915Z,7.64
2023-01-19T18:38:40.500Z,7.60
2023-01-19T18:41:11.723Z,7.57
2023-01-19T18:43:38.771Z,7.52
2023-01-19T18:46:06.826Z,7.48
2023-01-19T18:48:33.965Z,7.45
2023-01-19T18:51:05.753Z,7.42
2023-01-19T18:53:32.882Z,7.40
2023-01-19T18:56:04.111Z,7.39
2023-01-19T18:58:32.685Z,7.37
2023-01-19T19:01:01.113Z,7.37
2023-01-19T19:03:28.597Z,7.35
2023-01-19T19:05:55.808Z,7.34
2023-01-19T19:08:22.924Z,7.35
2023-01-19T19:10:49.876Z,7.35
2023-01-19T19:13:17.193Z,7.35
2023-01-19T19:15:44.280Z,7.35
2023-01-19T19:18:13.175Z,7.35
2023-01-19T19:20:41.475Z,7.37
2023-01-19T19:23:09.314Z,7.37
2023-01-19T19:25:36.432Z,7.38
2023-01-19T19:28:04.079Z,7.38
2023-01-19T19:30:33.776Z,7.37
2023-01-19T19:33:01.007Z,7.37
2023-01-19T19:35:28.121Z,7.37
2023-01-19T19:37:56.824Z,7.36
2023-01-19T19:40:28.049Z,7.36
2023-01-19T19:42:56.977Z,7.36
2023-01-19T19:45:25.655Z,7.35
2023-01-19T19:47:52.601Z,7.34
2023-01-19T19:50:19.641Z,7.32
2023-01-19T19:52:46.622Z,7.31
2023-01-19T19:55:13.682Z,7.29
2023-01-19T19:57:40.678Z,7.28
2023-01-19T20:00:08.247Z,7.28
2023-01-19T20:02:37.802Z,7.29
2023-01-19T20:05:05.385Z,7.28
2023-01-19T20:07:32.405Z,7.29
2023-01-19T20:09:59.398Z,7.29
2023-01-19T20:12:26.920Z,7.27
2023-01-19T20:14:53.851Z,7.27
2023-01-19T20:17:20.942Z,7.28
2023-01-19T20:19:48.394Z,7.28
2023-01-19T20:22:15.492Z,7.27
2023-01-19T20:24:42.575Z,7.26
2023-01-19T20:27:09.652Z,7.28
2023-01-19T20:29:36.613Z,7.26
2023-01-19T20:32:03.694Z,7.27
2023-01-19T20:34:33.455Z,7.28
2023-01-19T20:37:01.957Z,7.29
2023-01-19T20:39:32.549Z,7.27
2023-01-19T20:42:00.542Z,7.25
2023-01-19T20:44:28.112Z,7.25
2023-01-19T20:46:55.265Z,7.22
2023-01-19T20:49:23.026Z,7.22
2023-01-19T20:51:51.406Z,7.20
2023-01-19T20:54:21.777Z,7.20
2023-01-19T20:56:48.908Z,7.21
2023-01-19T20:59:16.520Z,7.21
2023-01-19T21:01:44.220Z,7.21
2023-01-19T21:04:12.057Z,7.22
2023-01-19T21:06:39.056Z,7.21
2023-01-19T21:09:06.844Z,7.21
2023-01-19T21:11:34.615Z,7.20
2023-01-19T21:14:02.146Z,7.20
2023-01-19T21:16:32.958Z,7.20
2023-01-19T21:19:00.018Z,7.21
2023-01-19T21:21:31.672Z,7.20
2023-01-19T21:24:00.810Z,7.20
2023-01-19T21:26:32.676Z,7.20
2023-01-19T21:29:01.373Z,7.21
2023-01-19T21:31:28.894Z,7.20
2023-01-19T21:33:57.248Z,7.20
2023-01-19T21:36:24.794Z,7.19
2023-01-19T21:38:52.200Z,7.16
2023-01-19T21:41:19.852Z,7.12
2023-01-19T21:43:46.888Z,7.10
2023-01-19T21:46:33.483Z,7.08
2023-01-19T21:49:03.416Z,7.03
2023-01-19T21:51:33.003Z,7.02
2023-01-19T21:54:03.915Z,6.98
2023-01-19T21:56:31.121Z,6.96
2023-01-19T21:59:01.679Z,6.96
2023-01-19T22:01:29.308Z,6.96
2023-01-19T22:03:57.655Z,6.95
2023-01-19T22:06:26.382Z,6.97
2023-01-19T22:08:54.418Z,6.98
2023-01-19T22:11:21.777Z,6.97
2023-01-19T22:13:49.031Z,6.95
2023-01-19T22:16:18.968Z,6.94
2023-01-19T22:18:50.597Z,6.94
2023-01-19T22:21:20.681Z,6.93
2023-01-19T22:23:49.628Z,6.92
2023-01-19T22:26:16.835Z,6.88
2023-01-19T22:28:43.977Z,6.86
2023-01-19T22:31:16.441Z,6.83
2023-01-19T22:33:44.093Z,6.81
2023-01-19T22:36:22.618Z,6.80
2023-01-19T22:38:57.883Z,6.77
2023-01-19T22:41:30.899Z,6.76
2023-01-19T22:44:03.400Z,6.72
2023-01-19T22:46:32.710Z,6.68
2023-01-19T22:49:00.138Z,6.65
2023-01-19T22:51:28.970Z,6.60
2023-01-19T22:53:56.608Z,6.55
2023-01-19T22:56:26.685Z,6.51
2023-01-19T22:58:54.041Z,6.45
2023-01-19T23:01:23.684Z,6.40
2023-01-19T23:03:51.003Z,6.39
2023-01-19T23:06:24.370Z,6.41
2023-01-19T23:08:51.885Z,6.38
2023-01-19T23:11:27.726Z,6.37
2023-01-19T23:13:55.209Z,6.36
2023-01-19T23:16:22.344Z,6.32
2023-01-19T23:18:52.786Z,6.28
2023-01-19T23:21:21.282Z,6.23
2023-01-19T23:23:48.399Z,6.21
2023-01-19T23:26:19.211Z,6.19
2023-01-19T23:28:46.732Z,6.15
2023-01-19T23:31:22.259Z,6.11
2023-01-19T23:33:55.016Z,6.08
2023-01-19T23:36:23.916Z,6.06
2023-01-19T23:38:53.749Z,6.05
2023-01-19T23:41:22.326Z,6.02
2023-01-19T23:43:49.643Z,6.00
2023-01-19T23:46:18.095Z,5.97
2023-01-19T23:48:45.723Z,5.94
2023-01-19T23:51:22.830Z,5.91
2023-01-19T23:53:50.743Z,5.87
2023-01-19T23:56:29.696Z,5.87
2023-01-19T23:59:01.155Z,5.83
